createdAt,value
2018-08-06T00:01:41.764Z,1.67
2018-08-06T00:04:11.556Z,1.72
2018-08-06T00:06:40.826Z,1.50
2018-08-06T00:09:10.051Z,1.30
2018-08-06T00:11:39.728Z,1.82
2018-08-06T00:14:08.801Z,1.30
2018-08-06T00:16:38.225Z,1.65
2018-08-06T00:19:07.460Z,1.60
2018-08-06T00:21:36.720Z,1.50
2018-08-06T00:24:06.165Z,1.52
2018-08-06T00:26:35.358Z,1.40
2018-08-06T00:29:04.868Z,1.30
2018-08-06T00:31:34.008Z,1.40
2018-08-06T00:34:03.215Z,1.90
2018-08-06T00:36:32.988Z,1.35
2018-08-06T00:39:02.333Z,1.40
2018-08-06T00:41:31.431Z,1.60
2018-08-06T00:44:00.624Z,1.47
2018-08-06T00:46:29.968Z,1.60
2018-08-06T00:48:59.378Z,1.72
2018-08-06T00:51:28.538Z,1.32
2018-08-06T00:53:58.248Z,1.32
2018-08-06T00:56:27.808Z,1.62
2018-08-06T00:58:57.081Z,1.35
2018-08-06T01:01:26.528Z,1.60
2018-08-06T01:03:56.045Z,1.60
2018-08-06T01:06:25.285Z,1.40
2018-08-06T01:08:54.368Z,1.90
2018-08-06T01:11:23.592Z,1.60
2018-08-06T01:13:53.121Z,1.37
2018-08-06T01:16:22.346Z,1.65
2018-08-06T01:18:51.561Z,1.70
2018-08-06T01:21:20.764Z,1.40
2018-08-06T01:23:50.026Z,1.50
2018-08-06T01:26:19.277Z,1.70
2018-08-06T01:28:48.501Z,1.65
2018-08-06T01:31:17.768Z,1.37
2018-08-06T01:33:47.081Z,1.70
2018-08-06T01:36:16.433Z,1.55
2018-08-06T01:38:45.798Z,1.77
2018-08-06T01:41:15.123Z,1.57
2018-08-06T01:43:45.104Z,1.57
2018-08-06T01:46:14.444Z,1.50
2018-08-06T01:48:43.922Z,1.67
2018-08-06T01:51:13.202Z,1.50
2018-08-06T01:53:42.462Z,1.87
2018-08-06T01:56:11.721Z,1.62
2018-08-06T01:58:41.218Z,1.67
2018-08-06T02:01:10.739Z,1.85
2018-08-06T02:03:40.098Z,2.00
2018-08-06T02:06:09.220Z,1.50
2018-08-06T02:08:38.521Z,1.67
2018-08-06T02:11:08.057Z,2.17
2018-08-06T02:13:37.288Z,1.50
2018-08-06T02:16:06.535Z,1.65
2018-08-06T02:18:35.916Z,1.70
2018-08-06T02:21:06.193Z,1.90
2018-08-06T02:23:35.484Z,1.82
2018-08-06T02:26:05.290Z,1.65
2018-08-06T02:28:34.674Z,1.70
2018-08-06T02:31:04.506Z,1.55
2018-08-06T02:33:33.688Z,1.70
2018-08-06T02:36:03.022Z,1.57
2018-08-06T02:38:32.163Z,1.80
2018-08-06T02:41:01.445Z,1.80
2018-08-06T02:43:30.704Z,1.57
2018-08-06T02:46:00.671Z,2.00
2018-08-06T02:48:30.014Z,1.65
2018-08-06T02:50:59.787Z,1.85
2018-08-06T02:53:33.971Z,1.62
2018-08-06T02:56:03.816Z,1.55
2018-08-06T02:58:33.079Z,1.75
2018-08-06T03:01:02.397Z,1.72
2018-08-06T03:03:31.708Z,1.75
2018-08-06T03:06:01.719Z,1.67
2018-08-06T03:08:31.142Z,1.60
2018-08-06T03:11:00.065Z,1.90
2018-08-06T03:13:29.661Z,1.80
2018-08-06T03:15:59.507Z,1.65
2018-08-06T03:18:28.903Z,1.60
2018-08-06T03:20:58.371Z,1.65
2018-08-06T03:23:27.787Z,1.80
2018-08-06T03:25:57.204Z,2.02
2018-08-06T03:28:26.728Z,2.05
2018-08-06T03:30:57.788Z,2.15
2018-08-06T03:33:27.113Z,2.30
2018-08-06T03:35:56.483Z,2.02
2018-08-06T03:38:26.392Z,2.42
2018-08-06T03:40:55.840Z,2.70
2018-08-06T03:43:25.085Z,2.87
2018-08-06T03:45:54.368Z,2.37
2018-08-06T03:48:23.703Z,2.65
2018-08-06T03:50:53.287Z,3.10
2018-08-06T03:53:22.977Z,3.37
2018-08-06T03:55:52.380Z,3.55
2018-08-06T03:58:21.733Z,3.05
2018-08-06T04:00:50.922Z,2.95
2018-08-06T04:03:20.303Z,3.58
2018-08-06T04:05:50.254Z,3.50
2018-08-06T04:08:19.760Z,3.10
2018-08-06T04:10:49.244Z,2.90
2018-08-06T04:13:18.845Z,2.70
2018-08-06T04:15:48.654Z,3.10
2018-08-06T04:18:18.176Z,2.35
2018-08-06T04:20:47.909Z,2.90
2018-08-06T04:23:17.353Z,2.98
2018-08-06T04:25:46.681Z,2.60
2018-08-06T04:28:16.045Z,2.33
2018-08-06T04:30:45.732Z,2.50
2018-08-06T04:33:18.093Z,2.10
2018-08-06T04:35:47.606Z,1.95
2018-08-06T04:38:17.154Z,2.30
2018-08-06T04:40:46.798Z,3.52
2018-08-06T04:43:16.336Z,2.35
2018-08-06T04:45:45.915Z,2.50
2018-08-06T04:48:15.646Z,2.22
2018-08-06T04:50:45.046Z,2.37
2018-08-06T04:53:14.531Z,2.15
2018-08-06T04:55:44.158Z,2.50
2018-08-06T04:58:13.531Z,8.53
2018-08-06T05:00:43.248Z,2.33
2018-08-06T05:03:12.610Z,2.40
2018-08-06T05:05:41.922Z,2.20
2018-08-06T05:08:11.829Z,1.80
2018-08-06T05:10:41.486Z,2.30
2018-08-06T05:13:11.160Z,1.90
2018-08-06T05:15:40.878Z,2.17
2018-08-06T05:18:10.344Z,2.12
2018-08-06T05:20:40.967Z,2.00
2018-08-06T05:23:10.324Z,2.08
2018-08-06T05:25:40.759Z,2.33
2018-08-06T05:28:11.797Z,2.30
2018-08-06T05:30:41.459Z,2.30
2018-08-06T05:33:11.540Z,2.12
2018-08-06T05:35:41.412Z,2.00
2018-08-06T05:38:10.437Z,2.72
2018-08-06T05:40:39.856Z,1.82
2018-08-06T05:43:09.846Z,2.17
2018-08-06T05:45:39.364Z,1.70
2018-08-06T05:48:08.916Z,2.08
2018-08-06T05:50:38.503Z,1.40
2018-08-06T05:53:09.355Z,1.92
2018-08-06T05:55:38.999Z,1.82
2018-08-06T05:58:09.041Z,1.77
2018-08-06T06:00:38.835Z,2.42
2018-08-06T06:03:08.451Z,1.95
2018-08-06T06:05:38.301Z,2.02
2018-08-06T06:08:07.890Z,2.02
2018-08-06T06:10:37.423Z,1.90
2018-08-06T06:13:08.449Z,1.70
2018-08-06T06:15:38.540Z,1.85
2018-08-06T06:18:08.339Z,2.17
2018-08-06T06:20:38.038Z,1.60
2018-08-06T06:23:08.706Z,1.75
2018-08-06T06:25:38.378Z,1.67
2018-08-06T06:28:08.457Z,2.05
2018-08-06T15:59:36.073Z,2.67
2018-08-06T16:02:05.813Z,3.10
2018-08-06T16:07:28.841Z,2.80
2018-08-06T16:09:58.348Z,2.85
2018-08-06T16:12:29.053Z,2.80
2018-08-06T16:14:58.717Z,3.30
2018-08-06T16:17:28.074Z,3.90
2018-08-06T16:19:58.389Z,3.37
2018-08-06T16:22:28.910Z,2.75
2018-08-06T16:24:58.339Z,2.87
2018-08-06T16:27:29.808Z,2.70
2018-08-06T16:30:00.133Z,2.47
2018-08-06T16:32:31.184Z,3.25
2018-08-06T16:35:01.248Z,2.75
2018-08-06T16:37:32.872Z,2.80
2018-08-06T16:45:49.790Z,2.77
2018-08-06T16:48:26.077Z,3.05
2018-08-06T16:50:57.749Z,5.15
2018-08-06T16:56:21.719Z,2.90
2018-08-06T17:01:45.721Z,5.33
2018-08-06T17:04:15.968Z,3.10
2018-08-06T17:06:45.676Z,3.40
2018-08-06T17:09:15.832Z,3.00
2018-08-06T17:11:45.980Z,2.92
2018-08-06T17:14:16.206Z,3.47
2018-08-06T17:16:46.392Z,3.17
2018-08-06T17:19:16.357Z,3.20
2018-08-06T17:21:46.013Z,2.65
2018-08-06T17:24:16.080Z,3.12
2018-08-06T17:29:39.472Z,3.70
2018-08-06T17:32:08.905Z,3.25
2018-08-06T17:34:39.016Z,3.10
2018-08-06T17:37:09.620Z,3.22
2018-08-06T17:39:39.597Z,2.83
2018-08-06T17:42:10.054Z,3.15
2018-08-06T17:44:40.880Z,3.12
2018-08-06T17:50:04.369Z,3.42
2018-08-06T17:52:35.384Z,3.10
2018-08-06T17:58:05.563Z,3.25
2018-08-06T18:00:36.983Z,3.35
2018-08-06T18:03:07.011Z,4.60
2018-08-06T18:05:41.716Z,3.60
2018-08-06T18:08:14.718Z,3.45
2018-08-06T18:10:44.596Z,2.95
2018-08-06T18:13:14.244Z,2.80
2018-08-06T18:15:44.426Z,2.95
2018-08-06T18:18:14.659Z,3.17
2018-08-06T18:20:44.045Z,2.52
2018-08-06T18:23:13.955Z,3.30
2018-08-06T18:25:45.152Z,3.27
2018-08-06T18:28:16.193Z,3.30
2018-08-06T18:30:47.702Z,2.97
2018-08-06T18:33:17.742Z,3.47
2018-08-06T18:35:47.679Z,3.35
2018-08-06T18:38:17.318Z,3.10
2018-08-06T18:40:46.965Z,3.30
2018-08-06T18:43:16.633Z,3.00
2018-08-06T18:45:46.527Z,2.92
2018-08-06T18:48:15.973Z,3.33
2018-08-06T18:50:45.422Z,3.30
2018-08-06T18:53:14.960Z,3.10
2018-08-06T18:55:45.002Z,3.50
2018-08-06T18:58:14.983Z,3.40
2018-08-06T19:00:44.993Z,3.65
2018-08-06T19:03:14.877Z,4.35
2018-08-06T19:05:45.208Z,3.83
2018-08-06T19:08:15.423Z,3.25
2018-08-06T19:10:45.205Z,3.10
2018-08-06T19:16:06.126Z,3.52
2018-08-06T19:18:42.467Z,3.70
2018-08-06T19:21:12.529Z,3.50
2018-08-06T19:23:44.143Z,3.55
2018-08-06T19:26:14.002Z,3.47
2018-08-06T19:32:19.331Z,3.40
2018-08-06T19:34:49.047Z,3.60
2018-08-06T19:37:24.019Z,3.20
2018-08-06T19:39:53.244Z,3.40
2018-08-06T19:42:22.750Z,4.05
2018-08-06T19:44:52.184Z,3.58
2018-08-06T19:47:22.598Z,3.85
2018-08-06T19:49:56.992Z,4.33
2018-08-06T19:52:26.809Z,3.85
2018-08-06T19:55:00.247Z,4.30
2018-08-06T19:57:30.188Z,3.97
2018-08-06T19:59:59.654Z,4.33
2018-08-06T20:02:29.566Z,4.37
2018-08-06T20:04:58.975Z,4.00
2018-08-06T20:07:28.369Z,4.58
2018-08-06T20:09:57.815Z,4.85
2018-08-06T20:12:27.109Z,3.87
2018-08-06T20:14:56.832Z,4.00
2018-08-06T20:17:26.227Z,4.05
2018-08-06T20:19:55.789Z,4.12
2018-08-06T20:22:25.822Z,4.03
2018-08-06T20:24:55.487Z,4.05
2018-08-06T20:27:24.721Z,3.83
2018-08-06T20:29:59.724Z,4.20
2018-08-06T20:32:30.601Z,4.67
2018-08-06T20:34:59.801Z,3.75
2018-08-06T20:37:28.970Z,4.05
2018-08-06T20:39:58.393Z,3.67
2018-08-06T20:42:28.602Z,3.80
2018-08-06T20:44:58.608Z,3.80
2018-08-06T20:47:28.010Z,3.92
2018-08-06T20:49:57.171Z,4.03
2018-08-06T20:52:37.771Z,4.33
2018-08-06T20:55:07.971Z,3.70
2018-08-06T20:57:46.053Z,4.60
2018-08-06T21:00:18.221Z,4.27
2018-08-06T21:02:48.379Z,3.95
2018-08-06T21:05:20.916Z,4.13
2018-08-06T21:17:37.082Z,3.98
2018-08-06T21:20:12.475Z,3.90
2018-08-06T21:22:43.141Z,4.22
2018-08-06T21:25:12.779Z,4.62
2018-08-06T21:27:43.268Z,4.42
2018-08-06T21:30:16.050Z,4.40
2018-08-06T21:32:48.200Z,4.85
2018-08-06T21:35:18.208Z,4.73
2018-08-06T21:37:48.763Z,4.95
2018-08-06T21:40:19.128Z,4.40
2018-08-06T21:42:48.845Z,4.87
2018-08-06T21:45:18.320Z,4.90
2018-08-06T21:47:48.099Z,4.28
2018-08-06T21:50:17.541Z,4.77
2018-08-06T21:52:47.116Z,4.08
2018-08-06T21:55:16.618Z,5.20
2018-08-06T21:57:46.237Z,4.20
2018-08-06T22:00:24.009Z,4.33
2018-08-06T22:02:53.278Z,4.30
2018-08-06T22:05:22.602Z,3.53
2018-08-06T22:07:54.698Z,4.78
2018-08-06T22:10:23.921Z,5.13
2018-08-06T22:12:53.286Z,6.05
2018-08-06T22:15:23.096Z,4.87
2018-08-06T22:17:52.513Z,5.50
2018-08-06T22:20:22.000Z,5.93
2018-08-06T22:22:51.627Z,5.10
2018-08-06T22:25:21.267Z,7.00
2018-08-06T22:27:50.758Z,6.10
2018-08-06T22:30:20.345Z,5.90
2018-08-06T22:32:50.011Z,5.20
2018-08-06T22:35:19.166Z,5.17
2018-08-06T22:37:48.748Z,5.17
2018-08-06T22:40:18.287Z,5.07
2018-08-06T22:42:47.896Z,4.10
2018-08-06T22:45:17.347Z,4.87
2018-08-06T22:47:47.071Z,4.47
2018-08-06T22:50:16.357Z,4.40
2018-08-06T22:53:00.973Z,4.45
2018-08-06T22:55:34.692Z,4.15
2018-08-06T22:58:03.984Z,4.30
2018-08-06T23:00:33.496Z,4.58
2018-08-06T23:03:02.865Z,4.53
2018-08-06T23:05:32.182Z,4.53
2018-08-06T23:08:01.646Z,4.80
2018-08-06T23:10:31.015Z,4.85
2018-08-06T23:13:00.285Z,4.62
2018-08-06T23:15:30.321Z,4.65
2018-08-06T23:17:59.694Z,4.90
2018-08-06T23:20:28.938Z,4.45
2018-08-06T23:22:58.332Z,5.03
2018-08-06T23:25:27.715Z,4.85
2018-08-06T23:28:15.463Z,5.20
2018-08-06T23:30:44.696Z,4.83
2018-08-06T23:33:14.022Z,4.90
2018-08-06T23:35:43.408Z,5.08
2018-08-06T23:38:12.705Z,5.12
2018-08-06T23:40:42.000Z,4.90
2018-08-06T23:43:11.416Z,4.45
2018-08-06T23:45:40.718Z,4.75
2018-08-06T23:48:10.294Z,4.30
2018-08-06T23:50:39.666Z,4.78
2018-08-06T23:53:08.831Z,4.85
2018-08-06T23:55:38.244Z,4.50
2018-08-06T23:58:07.912Z,5.08
